Time;durP1;ratioP1;P1;durP2;ratioP2;P2;SDS_P1;SDS_P2;PMS_P1;PMS_P2;Temp;Humidity;BMP_temperature;BMP_pressure;BME280_temperature;BME280_humidity;BME280_pressure;Samples;Min_cycle;Max_cycle;Signal;HPM_P1;HPM_P2
2021/01/21 00:00:37;;;;;;;;;;;;;;;-5.86;61.56;100878.05;1766567;80;21149;-61
2021/01/21 00:03:07;;;;;;;;;;;;;;;-5.80;61.56;100876.78;1767906;80;20159;-62
2021/01/21 00:05:36;;;;;;;;;;;;;;;-5.73;61.50;100876.76;1767977;80;20286;-63
2021/01/21 00:08:06;;;;;;;;;;;;;;;-5.65;61.45;100883.64;1761372;80;20328;-62
2021/01/21 00:10:34;;;;;;;;;;;;;;;-5.59;61.26;100884.16;1767005;80;20228;-63
2021/01/21 00:13:09;;;;;;;;;;;;;;;-5.56;61.13;100880.89;1763282;80;21254;-62
2021/01/21 00:15:40;;;;;;;;;;;;;;;-5.57;61.03;100881.00;1756545;80;20734;-63
2021/01/21 00:18:12;;;;;;;;;;;;;;;-5.64;61.20;100879.23;1704370;80;20504;-65
2021/01/21 00:20:43;;;;;;;;;;;;;;;-5.61;61.28;100880.34;1755024;80;20232;-62
2021/01/21 00:23:12;;;;;;;;;;;;;;;-5.51;61.21;100867.03;1620608;86;20809;-62
2021/01/21 00:25:40;;;;;;;;;;;;;;;-5.44;61.15;100861.42;1636560;86;22103;-62
2021/01/21 00:28:20;;;;;;;;;;;;;;;-5.31;61.13;100871.42;1813790;77;20689;-62
2021/01/21 00:30:53;;;;;;;;;;;;;;;-5.31;60.99;100864.41;1820675;77;20149;-65
2021/01/21 00:33:21;;;;;;;;;;;;;;;-5.28;60.93;100867.30;1825187;77;21217;-61
2021/01/21 00:35:49;;;;;;;;;;;;;;;-5.28;61.02;100872.05;1703415;83;20154;-61
2021/01/21 00:38:18;;;;;;;;;;;;;;;-5.32;61.03;100871.88;1705486;83;20205;-61
2021/01/21 00:40:46;;;;;;;;;;;;;;;-5.39;61.21;100866.69;1696550;83;20251;-61
2021/01/21 00:43:14;;;;;;;;;;;;;;;-5.43;61.38;100866.55;1704023;83;20171;-62
2021/01/21 00:45:43;;;;;;;;;;;;;;;-5.43;61.47;100866.55;1702755;83;21222;-61
2021/01/21 00:48:10;;;;;;;;;;;;;;;-5.35;61.46;100866.86;1703062;83;20236;-61
2021/01/21 00:50:38;;;;;;;;;;;;;;;-5.28;61.40;100858.14;1703508;83;20177;-62
2021/01/21 00:53:08;;;;;;;;;;;;;;;-5.24;61.37;100863.98;1697679;77;20254;-63
2021/01/21 00:55:37;;;;;;;;;;;;;;;-5.26;61.38;100853.64;1834644;77;20579;-62
2021/01/21 00:58:06;;;;;;;;;;;;;;;-5.25;61.42;100855.33;1802874;77;21206;-62
2021/01/21 01:00:34;;;;;;;;;;;;;;;-5.19;61.42;100853.59;1822724;77;20142;-63
2021/01/21 01:03:05;;;;;;;;;;;;;;;-5.13;61.36;100854.95;1824667;78;20133;-64
2021/01/21 01:05:36;;;;;;;;;;;;;;;-5.08;61.22;100852.85;1820737;78;20155;-62
2021/01/21 01:08:05;;;;;;;;;;;;;;;-5.08;61.22;100850.72;1824378;78;20291;-61
2021/01/21 01:10:33;;;;;;;;;;;;;;;-5.05;61.29;100851.36;1790553;78;22122;-64
2021/01/21 01:13:03;;;;;;;;;;;;;;;-5.02;61.23;100849.84;1819092;78;20288;-62
2021/01/21 01:15:33;;;;;;;;;;;;;;;-5.01;61.27;100850.19;1823341;78;20133;-64
2021/01/21 01:18:01;;;;;;;;;;;;;;;-5.07;61.30;100844.08;1821303;78;20149;-64
2021/01/21 01:20:29;;;;;;;;;;;;;;;-5.11;61.35;100830.39;1824588;78;20268;-63
2021/01/21 01:22:57;;;;;;;;;;;;;;;-5.17;61.28;100841.23;1826803;78;21207;-64
2021/01/21 01:25:27;;;;;;;;;;;;;;;-5.23;61.04;100840.36;1824574;78;20174;-65
2021/01/21 01:27:55;;;;;;;;;;;;;;;-5.22;61.04;100832.06;1818796;78;20238;-63
2021/01/21 01:30:23;;;;;;;;;;;;;;;-5.17;60.92;100828.64;1790379;78;20295;-62
2021/01/21 01:32:52;;;;;;;;;;;;;;;-5.16;60.63;100818.56;1822488;78;20299;-63
2021/01/21 01:35:21;;;;;;;;;;;;;;;-5.18;60.58;100826.52;1819168;78;21359;-61
2021/01/21 01:37:51;;;;;;;;;;;;;;;-5.14;60.37;100816.67;1818464;78;20225;-61
2021/01/21 01:40:20;;;;;;;;;;;;;;;-5.14;60.33;100830.59;1821934;78;20158;-61
2021/01/21 01:42:50;;;;;;;;;;;;;;;-5.13;60.26;100831.42;1817622;78;20221;-62
2021/01/21 01:45:19;;;;;;;;;;;;;;;-5.12;60.15;100824.78;1822807;78;20271;-60
2021/01/21 01:47:48;;;;;;;;;;;;;;;-5.13;60.14;100815.73;1703049;84;22109;-62
2021/01/21 01:50:29;;;;;;;;;;;;;;;-5.06;60.14;100817.44;1827423;77;20180;-62
2021/01/21 01:52:57;;;;;;;;;;;;;;;-5.11;60.09;100825.16;1783177;79;20153;-62
2021/01/21 01:55:25;;;;;;;;;;;;;;;-5.08;59.86;100818.85;1769297;79;21210;-62
2021/01/21 01:57:57;;;;;;;;;;;;;;;-5.10;59.97;100823.37;1792240;79;20163;-62
2021/01/21 02:00:27;;;;;;;;;;;;;;;-5.12;60.01;100816.94;1788934;79;20145;-61
2021/01/21 02:02:56;;;;;;;;;;;;;;;-5.13;60.11;100815.25;1789200;79;20113;-62
2021/01/21 02:05:25;;;;;;;;;;;;;;;-5.08;60.15;100816.72;1789345;79;20479;-61
2021/01/21 02:07:53;;;;;;;;;;;;;;;-5.03;60.05;100813.34;1793389;79;21356;-61
2021/01/21 02:10:21;;;;;;;;;;;;;;;-4.97;59.91;100817.66;1788802;79;20494;-63
2021/01/21 02:13:03;;;;;;;;;;;;;;;-4.97;59.50;100809.80;1790504;79;20131;-62
2021/01/21 02:15:37;;;;;;;;;;;;;;;-5.01;59.41;100801.80;1789943;79;20184;-60
2021/01/21 02:18:15;;;;;;;;;;;;;;;-5.09;59.39;100797.59;1789870;79;20497;-64
2021/01/21 02:21:15;;;;;;;;;;;;;;;-5.19;59.62;100792.16;1786207;79;22117;-61
2021/01/21 02:24:04;;;;;;;;;;;;;;;-5.22;59.72;100799.38;1789024;79;20220;-60
2021/01/21 02:26:49;;;;;;;;;;;;;;;-5.20;59.79;100806.64;1789364;79;20139;-62
2021/01/21 02:29:26;;;;;;;;;;;;;;;-5.17;59.85;100809.03;1789917;79;20195;-61
2021/01/21 02:32:10;;;;;;;;;;;;;;;-5.13;59.85;100803.48;1786219;79;20183;-60
2021/01/21 02:35:02;;;;;;;;;;;;;;;-5.13;59.79;100804.80;1785357;79;21388;-60
2021/01/21 02:37:30;;;;;;;;;;;;;;;-5.14;59.90;100791.83;1788460;79;20245;-61
2021/01/21 02:40:06;;;;;;;;;;;;;;;-5.16;59.95;100788.02;1791991;79;20228;-62
2021/01/21 02:42:45;;;;;;;;;;;;;;;-5.18;60.04;100767.69;1760300;79;20286;-60
2021/01/21 02:45:15;;;;;;;;;;;;;;;-5.22;60.17;100779.78;1788700;79;20248;-61
2021/01/21 02:47:45;;;;;;;;;;;;;;;-5.28;60.26;100778.41;1788069;79;21148;-61
2021/01/21 02:50:13;;;;;;;;;;;;;;;-5.26;60.33;100792.69;1758611;79;20294;-62
2021/01/21 02:52:44;;;;;;;;;;;;;;;-5.27;60.42;100795.78;1786673;79;20165;-60
2021/01/21 02:55:36;;;;;;;;;;;;;;;-5.25;60.47;100796.50;1786792;79;20496;-60
2021/01/21 02:58:32;;;;;;;;;;;;;;;-5.23;60.50;100787.24;1787073;79;20224;-61
2021/01/21 03:01:02;;;;;;;;;;;;;;;-5.22;60.54;100788.45;1695682;84;21417;-61
2021/01/21 03:03:32;;;;;;;;;;;;;;;-5.21;60.63;100786.20;1695199;84;20235;-60
2021/01/21 03:06:02;;;;;;;;;;;;;;;-5.17;60.71;100790.25;1697826;84;20323;-61
2021/01/21 03:08:33;;;;;;;;;;;;;;;-5.14;60.72;100783.53;1695326;84;20362;-61
2021/01/21 03:11:11;;;;;;;;;;;;;;;-5.09;60.71;100797.59;1695433;84;20239;-64
2021/01/21 03:13:47;;;;;;;;;;;;;;;-5.04;60.75;100794.17;1817337;77;20655;-60
2021/01/21 03:16:17;;;;;;;;;;;;;;;-5.04;60.77;100789.42;1833440;77;20196;-60
2021/01/21 03:18:51;;;;;;;;;;;;;;;-5.02;60.73;100791.45;1833383;77;21200;-60
2021/01/21 03:21:19;;;;;;;;;;;;;;;-4.96;60.72;100789.70;1799063;77;20188;-63
2021/01/21 03:23:56;;;;;;;;;;;;;;;-4.95;60.76;100788.33;1828570;77;20180;-61
2021/01/21 03:26:26;;;;;;;;;;;;;;;-5.05;60.88;100785.98;1719137;83;20603;-61
2021/01/21 03:29:07;;;;;;;;;;;;;;;-4.98;61.07;100781.14;1819805;77;20455;-61
2021/01/21 03:31:35;;;;;;;;;;;;;;;-5.05;61.17;100783.37;1814310;79;20227;-62
2021/01/21 03:34:04;;;;;;;;;;;;;;;-5.04;61.28;100781.58;1813930;79;21369;-60
2021/01/21 03:36:33;;;;;;;;;;;;;;;-4.98;61.29;100781.14;1679526;85;20162;-60
2021/01/21 03:39:01;;;;;;;;;;;;;;;-4.95;61.46;100777.86;1677481;85;20171;-60
2021/01/21 03:41:51;;;;;;;;;;;;;;;-4.94;61.63;100772.14;1677987;85;20130;-60
2021/01/21 03:44:20;;;;;;;;;;;;;;;-4.97;61.88;100774.50;1678967;85;20324;-60
2021/01/21 03:46:49;;;;;;;;;;;;;;;-4.96;62.05;100776.18;1677707;85;21209;-62
2021/01/21 03:49:27;;;;;;;;;;;;;;;-4.88;62.11;100773.50;1824673;77;20184;-62
2021/01/21 03:51:57;;;;;;;;;;;;;;;-4.88;62.13;100777.42;1724556;82;20294;-60
2021/01/21 03:54:35;;;;;;;;;;;;;;;-4.83;62.19;100770.92;1723590;82;21894;-64
2021/01/21 03:57:06;;;;;;;;;;;;;;;-4.76;62.21;100770.83;1724044;82;20128;-61
2021/01/21 03:59:35;;;;;;;;;;;;;;;-4.66;62.29;100771.50;1708155;82;20128;-63
2021/01/21 04:02:03;;;;;;;;;;;;;;;-4.58;62.38;100777.01;1697426;84;20251;-63
2021/01/21 04:04:32;;;;;;;;;;;;;;;-4.58;62.47;100773.08;1696734;83;20514;-62
2021/01/21 04:07:01;;;;;;;;;;;;;;;-4.60;62.64;100777.59;1672854;84;20553;-63
2021/01/21 04:09:32;;;;;;;;;;;;;;;-4.60;62.80;100778.91;1716569;80;20141;-61
2021/01/21 04:12:03;;;;;;;;;;;;;;;-4.54;62.93;100781.56;1741138;80;20518;-61
2021/01/21 04:14:31;;;;;;;;;;;;;;;-4.42;62.88;100792.45;1771394;80;20509;-63
2021/01/21 04:16:59;;;;;;;;;;;;;;;-4.27;62.83;100797.05;1678934;84;20523;-62
2021/01/21 04:19:28;;;;;;;;;;;;;;;-4.12;62.66;100791.16;1679891;84;21223;-62
2021/01/21 04:21:56;;;;;;;;;;;;;;;-4.08;62.42;100784.75;1680118;84;20256;-62
2021/01/21 04:24:25;;;;;;;;;;;;;;;-4.08;62.29;100787.38;1679772;84;20376;-60
2021/01/21 04:26:54;;;;;;;;;;;;;;;-4.16;62.36;100787.12;1678734;84;20233;-64
2021/01/21 04:29:24;;;;;;;;;;;;;;;-4.21;62.47;100782.22;1680027;84;20234;-62
2021/01/21 04:31:54;;;;;;;;;;;;;;;-4.22;62.61;100787.09;1682225;84;21159;-63
2021/01/21 04:34:25;;;;;;;;;;;;;;;-4.28;62.87;100788.85;1699609;80;20577;-60
2021/01/21 04:36:53;;;;;;;;;;;;;;;-4.34;62.95;100795.36;1765398;80;20138;-61
2021/01/21 04:39:32;;;;;;;;;;;;;;;-4.37;63.20;100794.28;1759210;80;20545;-64
2021/01/21 04:42:02;;;;;;;;;;;;;;;-4.38;63.40;100789.98;1769588;80;20509;-62
2021/01/21 04:44:32;;;;;;;;;;;;;;;-4.36;63.64;100793.80;1770602;80;22096;-62
2021/01/21 04:47:02;;;;;;;;;;;;;;;-4.33;63.74;100790.47;1774094;80;20514;-62
2021/01/21 04:49:32;;;;;;;;;;;;;;;-4.25;63.77;100795.17;1759113;80;20494;-62
2021/01/21 04:52:01;;;;;;;;;;;;;;;-4.17;63.81;100789.37;1760209;80;20281;-61
2021/01/21 04:54:34;;;;;;;;;;;;;;;-4.23;63.80;100782.30;1702874;82;20519;-64
2021/01/21 04:57:09;;;;;;;;;;;;;;;-4.29;64.04;100776.70;1722843;82;21205;-62
2021/01/21 04:59:38;;;;;;;;;;;;;;;-4.37;64.10;100778.57;1695749;82;20226;-62
2021/01/21 05:02:08;;;;;;;;;;;;;;;-4.42;64.33;100780.67;1725691;82;20502;-63
2021/01/21 05:04:37;;;;;;;;;;;;;;;-4.45;64.59;100781.72;1627696;88;20252;-61
2021/01/21 05:07:25;;;;;;;;;;;;;;;-4.54;64.84;100775.84;1660486;86;20274;-62
2021/01/21 05:09:53;;;;;;;;;;;;;;;-4.63;65.12;100773.90;1635448;86;21229;-61
2021/01/21 05:12:21;;;;;;;;;;;;;;;-4.66;65.33;100769.71;1660583;86;20262;-62
2021/01/21 05:14:53;;;;;;;;;;;;;;;-4.64;65.40;100768.29;1627543;86;20245;-62
2021/01/21 05:17:42;;;;;;;;;;;;;;;-4.65;65.57;100770.08;1660312;86;20294;-62
2021/01/21 05:20:26;;;;;;;;;;;;;;;-4.59;66.18;100767.02;1827832;77;20229;-63
2021/01/21 05:23:05;;;;;;;;;;;;;;;-4.65;66.34;100777.08;1726853;81;20172;-64
2021/01/21 05:25:53;;;;;;;;;;;;;;;-4.66;66.60;100767.58;1812939;79;21129;-64
2021/01/21 05:28:27;;;;;;;;;;;;;;;-4.65;66.52;100770.53;1749676;79;20172;-65
2021/01/21 05:30:59;;;;;;;;;;;;;;;-4.57;66.60;100769.53;1817244;79;20136;-64
2021/01/21 05:33:29;;;;;;;;;;;;;;;-4.52;66.51;100771.36;1782416;79;20228;-63
2021/01/21 05:36:06;;;;;;;;;;;;;;;-4.46;66.70;100772.22;1817610;79;20133;-65
2021/01/21 05:38:39;;;;;;;;;;;;;;;-4.49;66.80;100779.44;1696936;84;21218;-61
2021/01/21 05:41:24;;;;;;;;;;;;;;;-4.50;67.17;100771.25;1828299;77;20252;-63
2021/01/21 05:43:54;;;;;;;;;;;;;;;-4.59;67.26;100776.66;1777856;78;20564;-67
2021/01/21 05:46:31;;;;;;;;;;;;;;;-4.59;67.52;100771.43;1804151;79;21958;-64
2021/01/21 05:48:59;;;;;;;;;;;;;;;-4.57;67.64;100763.81;1800484;79;20135;-65
2021/01/21 05:51:29;;;;;;;;;;;;;;;-4.54;67.69;100766.69;1802897;79;20207;-62
2021/01/21 05:53:59;;;;;;;;;;;;;;;-4.51;67.98;100774.31;1801349;79;20163;-65
2021/01/21 05:56:32;;;;;;;;;;;;;;;-4.52;68.02;100773.97;1791545;79;20677;-63
2021/01/21 05:59:09;;;;;;;;;;;;;;;-4.49;68.24;100759.81;1790724;79;21909;-63
2021/01/21 06:01:38;;;;;;;;;;;;;;;-4.44;68.26;100762.94;1770819;80;20173;-65
2021/01/21 06:04:09;;;;;;;;;;;;;;;-4.43;68.26;100764.59;1706052;80;20145;-63
2021/01/21 06:06:39;;;;;;;;;;;;;;;-4.40;68.48;100767.84;1726952;80;20531;-64
2021/01/21 06:09:12;;;;;;;;;;;;;;;-4.38;68.55;100765.11;1738892;80;20226;-67
2021/01/21 06:11:39;;;;;;;;;;;;;;;-4.33;68.51;100776.06;1767171;80;20498;-64
2021/01/21 06:14:07;;;;;;;;;;;;;;;-4.24;68.47;100772.80;1772291;80;20159;-60
2021/01/21 06:16:35;;;;;;;;;;;;;;;-4.17;68.28;100773.17;1770961;80;20616;-63
2021/01/21 06:19:03;;;;;;;;;;;;;;;-4.06;68.15;100771.91;1769669;79;20552;-61
2021/01/21 06:21:43;;;;;;;;;;;;;;;-3.95;68.00;100777.66;1775164;79;20262;-62
2021/01/21 06:24:15;;;;;;;;;;;;;;;-3.81;67.79;100782.34;1771036;80;21031;-64
2021/01/21 06:26:49;;;;;;;;;;;;;;;-3.72;67.56;100786.91;1767024;79;20206;-63
2021/01/21 06:29:17;;;;;;;;;;;;;;;-3.67;67.31;100779.53;1760282;80;20269;-63
2021/01/21 06:31:49;;;;;;;;;;;;;;;-3.63;67.13;100775.73;1770200;80;20189;-68
2021/01/21 06:34:20;;;;;;;;;;;;;;;-3.61;67.01;100773.81;1768835;80;20175;-65
2021/01/21 06:36:54;;;;;;;;;;;;;;;-3.57;66.92;100777.88;1774106;79;22161;-63
2021/01/21 06:39:28;;;;;;;;;;;;;;;-3.55;66.83;100765.97;1772679;79;20222;-62
2021/01/21 06:41:57;;;;;;;;;;;;;;;-3.53;66.85;100768.02;1754746;81;20206;-64
2021/01/21 06:44:24;;;;;;;;;;;;;;;-3.57;67.05;100761.33;1726052;81;20229;-64
2021/01/21 06:46:53;;;;;;;;;;;;;;;-3.64;67.43;100759.63;1751694;81;20219;-63
2021/01/21 06:49:21;;;;;;;;;;;;;;;-3.78;67.67;100762.00;1755008;80;21280;-66
2021/01/21 06:51:50;;;;;;;;;;;;;;;-3.83;67.91;100773.28;1752566;81;20281;-63
2021/01/21 06:54:18;;;;;;;;;;;;;;;-3.86;68.33;100757.80;1752157;81;20199;-65
2021/01/21 06:56:47;;;;;;;;;;;;;;;-3.98;68.48;100766.59;1751223;81;20224;-65
2021/01/21 06:59:15;;;;;;;;;;;;;;;-4.02;68.78;100761.20;1756271;80;20219;-66
2021/01/21 07:01:42;;;;;;;;;;;;;;;-4.06;69.14;100767.16;1751984;81;21201;-65
2021/01/21 07:04:21;;;;;;;;;;;;;;;-4.06;69.14;100768.47;1751354;81;20690;-64
2021/01/21 07:06:58;;;;;;;;;;;;;;;-4.01;69.22;100771.56;1750876;81;20502;-64
2021/01/21 07:09:26;;;;;;;;;;;;;;;-3.94;69.59;100774.58;1753878;79;20256;-64
2021/01/21 07:11:57;;;;;;;;;;;;;;;-3.95;69.69;100772.91;1755778;81;20232;-63
2021/01/21 07:14:34;;;;;;;;;;;;;;;-3.96;69.96;100773.39;1752380;81;21204;-63
2021/01/21 07:17:04;;;;;;;;;;;;;;;-4.03;70.21;100777.41;1754950;81;20150;-63
2021/01/21 07:19:42;;;;;;;;;;;;;;;-4.02;70.45;100773.81;1734468;81;20233;-64
2021/01/21 07:22:20;;;;;;;;;;;;;;;-3.96;70.59;100772.53;1678810;84;21696;-65
2021/01/21 07:24:59;;;;;;;;;;;;;;;-3.96;70.62;100776.01;1679167;84;20608;-64
2021/01/21 07:27:35;;;;;;;;;;;;;;;-3.89;70.81;100777.22;1830223;77;20274;-63
2021/01/21 07:30:17;;;;;;;;;;;;;;;-3.92;70.95;100780.05;1796583;79;20573;-61
2021/01/21 07:32:45;;;;;;;;;;;;;;;-3.85;70.91;100769.95;1802340;79;22127;-63
2021/01/21 07:35:35;;;;;;;;;;;;;;;-3.77;71.08;100779.86;1800998;79;20196;-63
2021/01/21 07:38:03;;;;;;;;;;;;;;;-3.73;71.12;100768.20;1797425;79;20111;-62
2021/01/21 07:40:47;;;;;;;;;;;;;;;-3.72;71.00;100775.13;1796342;79;20113;-63
2021/01/21 07:43:15;;;;;;;;;;;;;;;-3.61;71.09;100773.81;1801370;79;20111;-63
2021/01/21 07:45:44;;;;;;;;;;;;;;;-3.53;71.03;100767.53;1796102;79;20517;-65
2021/01/21 07:48:23;;;;;;;;;;;;;;;-3.46;70.96;100769.22;1800115;79;20147;-62
2021/01/21 07:50:51;;;;;;;;;;;;;;;-3.41;71.05;100760.51;1798621;79;20131;-63
2021/01/21 07:53:21;;;;;;;;;;;;;;;-3.44;71.17;100756.81;1803626;79;20192;-64
2021/01/21 07:55:50;;;;;;;;;;;;;;;-3.48;71.32;100751.93;1804856;79;20208;-63
2021/01/21 07:58:24;;;;;;;;;;;;;;;-3.49;71.47;100759.42;1801160;79;21219;-64
2021/01/21 08:00:52;;;;;;;;;;;;;;;-3.49;71.60;100764.19;1768798;79;20503;-62
2021/01/21 08:03:29;;;;;;;;;;;;;;;-3.42;71.79;100765.39;1771963;79;20231;-63
2021/01/21 08:06:13;;;;;;;;;;;;;;;-3.38;71.96;100760.27;1767760;80;20546;-62
2021/01/21 08:08:42;;;;;;;;;;;;;;;-3.36;72.09;100761.00;1768668;79;20219;-63
2021/01/21 08:11:18;;;;;;;;;;;;;;;-3.33;72.30;100759.09;1767716;80;21218;-62
2021/01/21 08:13:49;;;;;;;;;;;;;;;-3.30;72.18;100764.91;1770905;80;20867;-64
2021/01/21 08:16:17;;;;;;;;;;;;;;;-3.20;72.23;100760.62;1769971;80;20560;-62
2021/01/21 08:18:46;;;;;;;;;;;;;;;-3.06;72.10;100763.51;1765420;79;20142;-63
2021/01/21 08:21:24;;;;;;;;;;;;;;;-2.92;71.96;100757.16;1737506;80;20343;-63
2021/01/21 08:23:58;;;;;;;;;;;;;;;-2.88;71.84;100736.78;1767656;80;21203;-63
2021/01/21 08:26:30;;;;;;;;;;;;;;;-2.86;71.82;100751.91;1764896;80;20158;-63
2021/01/21 08:28:58;;;;;;;;;;;;;;;-2.83;71.78;100739.40;1759924;80;20158;-63
2021/01/21 08:31:32;;;;;;;;;;;;;;;-2.85;71.81;100738.67;1761298;80;20226;-63
2021/01/21 08:34:01;;;;;;;;;;;;;;;-2.85;72.02;100741.29;1759914;80;20223;-63
2021/01/21 08:36:29;;;;;;;;;;;;;;;-2.81;72.04;100734.03;1762746;80;21209;-62
2021/01/21 08:38:57;;;;;;;;;;;;;;;-2.71;72.21;100735.42;1764448;80;20298;-63
2021/01/21 08:41:25;;;;;;;;;;;;;;;-2.69;72.12;100730.90;1762401;80;20220;-62
2021/01/21 08:43:59;;;;;;;;;;;;;;;-2.58;72.07;100737.41;1761864;80;20227;-64
2021/01/21 08:46:23;;;;;;;;;;;;;;;-2.43;71.95;100734.51;1761334;80;20272;-64
2021/01/21 08:48:51;;;;;;;;;;;;;;;-2.34;71.70;100739.86;1759967;80;21206;-63
2021/01/21 08:51:34;;;;;;;;;;;;;;;-2.33;71.60;100741.50;1761848;80;20566;-63
2021/01/21 08:54:20;;;;;;;;;;;;;;;-2.36;71.74;100737.81;1759387;80;20746;-63
2021/01/21 08:57:09;;;;;;;;;;;;;;;-2.46;71.97;100723.77;1759626;80;20293;-64
2021/01/21 08:59:39;;;;;;;;;;;;;;;-2.54;72.24;100727.52;1764319;80;20219;-61
2021/01/21 09:02:07;;;;;;;;;;;;;;;-2.56;72.41;100726.33;1759064;80;22094;-63
2021/01/21 09:04:35;;;;;;;;;;;;;;;-2.43;72.42;100717.44;1760851;80;20474;-61
2021/01/21 09:07:05;;;;;;;;;;;;;;;-2.28;72.29;100707.01;1761589;80;20260;-63
2021/01/21 09:09:36;;;;;;;;;;;;;;;-2.18;72.04;100709.69;1762090;80;20221;-63
2021/01/21 09:12:17;;;;;;;;;;;;;;;-2.23;71.96;100699.56;1763686;80;20807;-67
2021/01/21 09:14:47;;;;;;;;;;;;;;;-2.32;72.24;100709.03;1761269;80;21117;-68
2021/01/21 09:17:15;;;;;;;;;;;;;;;-2.32;72.38;100708.22;1757558;80;20205;-68
2021/01/21 09:19:45;;;;;;;;;;;;;;;-2.25;72.35;100704.59;1766866;80;20718;-68
2021/01/21 09:22:14;;;;;;;;;;;;;;;-2.15;72.34;100701.09;1762672;80;20140;-67
2021/01/21 09:25:06;;;;;;;;;;;;;;;-2.08;72.20;100701.40;1757438;80;20211;-68
2021/01/21 09:27:35;;;;;;;;;;;;;;;-2.07;72.17;100695.19;1760674;80;21205;-67
2021/01/21 09:30:11;;;;;;;;;;;;;;;-2.08;72.15;100697.45;1761830;80;20164;-70
2021/01/21 09:32:41;;;;;;;;;;;;;;;-2.08;72.18;100690.89;1764652;80;20132;-70
2021/01/21 09:35:18;;;;;;;;;;;;;;;-2.08;72.28;100678.24;1759713;80;20882;-70
2021/01/21 09:37:50;;;;;;;;;;;;;;;-2.06;72.26;100694.70;1761959;80;20218;-69
2021/01/21 09:40:23;;;;;;;;;;;;;;;-1.97;72.29;100696.58;1764603;80;21276;-70
2021/01/21 09:42:51;;;;;;;;;;;;;;;-1.88;72.08;100693.17;1701675;83;20269;-67
2021/01/21 09:45:19;;;;;;;;;;;;;;;-1.88;72.10;100688.41;1700194;83;20197;-67
2021/01/21 09:47:49;;;;;;;;;;;;;;;-1.85;71.97;100698.17;1698913;83;20293;-67
2021/01/21 09:50:19;;;;;;;;;;;;;;;-1.86;71.93;100690.41;1701050;83;20261;-66
2021/01/21 09:52:46;;;;;;;;;;;;;;;-1.79;72.00;100690.25;1703498;83;22163;-71
2021/01/21 09:55:14;;;;;;;;;;;;;;;-1.68;71.81;100684.07;1701824;83;20251;-73
2021/01/21 09:57:51;;;;;;;;;;;;;;;-1.56;71.68;100696.66;1825323;77;20224;-69
2021/01/21 10:00:20;;;;;;;;;;;;;;;-1.54;71.56;100692.11;1800524;79;20216;-68
2021/01/21 10:02:48;;;;;;;;;;;;;;;-1.47;71.29;100687.50;1799609;79;21424;-70
2021/01/21 10:05:18;;;;;;;;;;;;;;;-1.44;70.91;100685.09;1802914;79;20365;-69
2021/01/21 10:07:48;;;;;;;;;;;;;;;-1.53;70.96;100681.46;1807107;78;20240;-69
2021/01/21 10:10:16;;;;;;;;;;;;;;;-1.62;71.20;100688.34;1801930;79;20496;-69
2021/01/21 10:12:45;;;;;;;;;;;;;;;-1.66;71.42;100681.67;1766719;79;20175;-68
2021/01/21 10:15:15;;;;;;;;;;;;;;;-1.63;71.53;100683.21;1801124;79;21357;-69
2021/01/21 10:17:44;;;;;;;;;;;;;;;-1.60;71.55;100679.00;1781299;79;20219;-68
2021/01/21 10:20:14;;;;;;;;;;;;;;;-1.53;71.56;100679.30;1801037;78;20247;-68
2021/01/21 10:22:42;;;;;;;;;;;;;;;-1.47;71.51;100678.30;1800272;79;20262;-67
2021/01/21 10:25:11;;;;;;;;;;;;;;;-1.37;71.44;100678.34;1798887;79;20163;-67
2021/01/21 10:27:39;;;;;;;;;;;;;;;-1.32;71.25;100673.50;1801896;79;21205;-67
2021/01/21 10:30:10;;;;;;;;;;;;;;;-1.30;71.29;100665.48;1802220;79;20224;-70
2021/01/21 10:32:38;;;;;;;;;;;;;;;-1.29;71.28;100669.78;1802269;79;20618;-67
2021/01/21 10:35:09;;;;;;;;;;;;;;;-1.29;71.32;100667.16;1798999;79;20127;-69
2021/01/21 10:37:36;;;;;;;;;;;;;;;-1.20;71.42;100661.08;1803176;79;20258;-62
2021/01/21 10:40:05;;;;;;;;;;;;;;;-1.14;71.31;100659.71;1801083;79;20621;-66
2021/01/21 10:42:33;;;;;;;;;;;;;;;-1.10;71.31;100659.80;1799390;79;20194;-66
2021/01/21 10:45:02;;;;;;;;;;;;;;;-0.99;71.29;100664.11;1802178;79;20135;-65
2021/01/21 10:47:30;;;;;;;;;;;;;;;-0.89;71.30;100655.74;1802262;79;20329;-64
2021/01/21 10:49:59;;;;;;;;;;;;;;;-0.81;71.04;100649.33;1804534;77;20148;-66
2021/01/21 10:52:27;;;;;;;;;;;;;;;-0.82;71.01;100637.12;1803683;79;21216;-67
2021/01/21 10:54:55;;;;;;;;;;;;;;;-0.86;71.12;100640.16;1806497;79;20232;-66
2021/01/21 10:57:25;;;;;;;;;;;;;;;-0.85;71.47;100642.66;1797286;79;20141;-68
2021/01/21 11:03:23;;;;;;;;;;;;;;;-0.76;71.57;100641.83;1791764;79;20209;-67
2021/01/21 11:09:34;;;;;;;;;;;;;;;-0.57;72.23;100638.87;1648093;86;20224;-65
2021/01/21 11:15:23;;;;;;;;;;;;;;;-0.27;71.34;100635.22;1647866;86;20182;-65
2021/01/21 11:21:22;;;;;;;;;;;;;;;-0.11;70.63;100625.92;1651509;84;21322;-65
2021/01/21 11:23:59;;;;;;;;;;;;;;;-0.13;70.49;100622.57;1817992;77;20342;-57
2021/01/21 11:26:29;;;;;;;;;;;;;;;-0.24;71.22;100618.30;1802811;79;20218;-59
2021/01/21 11:28:57;;;;;;;;;;;;;;;-0.23;70.99;100616.02;1797629;79;22046;-59
2021/01/21 11:31:25;;;;;;;;;;;;;;;-0.15;71.48;100604.27;1803007;79;20480;-60
2021/01/21 11:33:53;;;;;;;;;;;;;;;-0.01;71.22;100606.95;1801613;79;20147;-60
2021/01/21 11:36:23;;;;;;;;;;;;;;;0.08;70.76;100592.91;1799973;79;20331;-61
2021/01/21 11:38:52;;;;;;;;;;;;;;;0.16;70.42;100598.30;1796994;79;20218;-59
2021/01/21 11:41:19;;;;;;;;;;;;;;;0.23;70.15;100586.66;1800801;79;22043;-59
2021/01/21 11:43:47;;;;;;;;;;;;;;;0.32;69.72;100588.92;1800202;79;20192;-58
2021/01/21 11:46:15;;;;;;;;;;;;;;;0.37;69.58;100581.88;1800075;79;20179;-58
2021/01/21 11:48:44;;;;;;;;;;;;;;;0.45;69.32;100582.81;1799064;79;20135;-61
2021/01/21 11:51:11;;;;;;;;;;;;;;;0.58;69.05;100584.30;1800153;79;20187;-59
2021/01/21 11:53:40;;;;;;;;;;;;;;;0.67;68.78;100582.08;1799325;79;21203;-61
2021/01/21 11:56:09;;;;;;;;;;;;;;;0.80;68.65;100583.05;1800153;79;20131;-61
2021/01/21 11:58:38;;;;;;;;;;;;;;;0.89;68.28;100582.64;1797865;79;20224;-66
2021/01/21 12:01:07;;;;;;;;;;;;;;;0.93;67.79;100578.23;1800962;79;20240;-70
2021/01/21 12:03:34;;;;;;;;;;;;;;;0.91;67.54;100560.88;1799374;79;20124;-70
2021/01/21 12:06:03;;;;;;;;;;;;;;;0.81;67.30;100571.02;1800116;79;22122;-69
2021/01/21 12:08:31;;;;;;;;;;;;;;;0.66;67.45;100568.53;1799866;79;20659;-71
2021/01/21 12:10:59;;;;;;;;;;;;;;;0.58;67.62;100562.69;1800651;79;20513;-71
2021/01/21 12:13:27;;;;;;;;;;;;;;;0.52;67.75;100562.78;1769148;79;20175;-70
2021/01/21 12:15:55;;;;;;;;;;;;;;;0.47;67.89;100557.13;1797109;79;20242;-70
2021/01/21 12:18:25;;;;;;;;;;;;;;;0.40;67.89;100565.76;1797235;79;22217;-69
2021/01/21 12:20:53;;;;;;;;;;;;;;;0.23;68.19;100556.84;1794213;79;20258;-70
2021/01/21 12:23:21;;;;;;;;;;;;;;;0.06;68.49;100557.10;1776819;80;20639;-69
2021/01/21 12:25:49;;;;;;;;;;;;;;;-0.02;68.79;100556.02;1776097;80;20500;-68
2021/01/21 12:28:17;;;;;;;;;;;;;;;-0.07;68.93;100560.09;1752180;80;20163;-69
2021/01/21 12:30:45;;;;;;;;;;;;;;;-0.13;69.10;100552.27;1773123;80;21218;-69
2021/01/21 12:33:13;;;;;;;;;;;;;;;-0.13;69.21;100554.05;1773373;80;20143;-68
2021/01/21 12:35:42;;;;;;;;;;;;;;;-0.14;69.27;100563.77;1775050;81;20239;-69
2021/01/21 12:38:09;;;;;;;;;;;;;;;-0.12;69.38;100560.98;1775309;81;20498;-68
2021/01/21 12:40:37;;;;;;;;;;;;;;;-0.11;69.53;100560.02;1775518;80;20239;-70
2021/01/21 12:43:05;;;;;;;;;;;;;;;-0.13;69.74;100560.63;1775419;80;21157;-68
2021/01/21 12:45:33;;;;;;;;;;;;;;;-0.16;69.86;100554.34;1775427;81;20330;-68
2021/01/21 12:48:01;;;;;;;;;;;;;;;-0.10;70.03;100555.11;1775458;81;20223;-68
2021/01/21 12:50:30;;;;;;;;;;;;;;;-0.04;70.14;100556.66;1766205;81;20508;-68
2021/01/21 12:52:58;;;;;;;;;;;;;;;0.02;70.20;100557.08;1775579;81;20234;-70
2021/01/21 12:55:26;;;;;;;;;;;;;;;0.05;70.20;100552.83;1775577;81;21212;-70
2021/01/21 12:57:54;;;;;;;;;;;;;;;0.08;70.33;100546.77;1691592;84;20139;-71
2021/01/21 13:00:23;;;;;;;;;;;;;;;0.12;70.36;100546.00;1737795;82;20253;-67
2021/01/21 13:02:50;;;;;;;;;;;;;;;0.12;70.41;100552.59;1740816;82;20332;-68
2021/01/21 13:05:19;;;;;;;;;;;;;;;0.11;70.56;100549.11;1740929;82;20238;-69
2021/01/21 13:07:47;;;;;;;;;;;;;;;0.12;70.57;100550.78;1741048;82;21372;-69
2021/01/21 13:10:15;;;;;;;;;;;;;;;0.19;70.64;100551.51;1740880;82;20217;-69
2021/01/21 13:12:43;;;;;;;;;;;;;;;0.20;70.61;100552.67;1740837;82;21212;-69